sensor_id;sensor_type;location;lat;lon;timestamp;pressure;altitude;pressure_sealevel;temperature;humidity
11444;BME280;5778;47.856;12.154;2023-10-31T00:01:34;94905.09;;;11.65;100.00
11444;BME280;5778;47.856;12.154;2023-10-31T00:04:02;94910.44;;;11.65;100.00
11444;BME280;5778;47.856;12.154;2023-10-31T00:06:30;94923.25;;;11.63;100.00
11444;BME280;5778;47.856;12.154;2023-10-31T00:08:57;94922.28;;;11.54;100.00
11444;BME280;5778;47.856;12.154;2023-10-31T00:11:24;94936.34;;;11.41;100.00
11444;BME280;5778;47.856;12.154;2023-10-31T00:13:51;94937.53;;;11.35;100.00
11444;BME280;5778;47.856;12.154;2023-10-31T00:16:18;94934.94;;;11.30;100.00
11444;BME280;5778;47.856;12.154;2023-10-31T00:18:44;94949.97;;;11.21;100.00
11444;BME280;5778;47.856;12.154;2023-10-31T00:21:11;94953.00;;;11.14;100.00
11444;BME280;5778;47.856;12.154;2023-10-31T00:23:44;94953.56;;;11.11;100.00
11444;BME280;5778;47.856;12.154;2023-10-31T00:26:11;94957.16;;;11.02;100.00
11444;BME280;5778;47.856;12.154;2023-10-31T00:28:41;94954.09;;;10.95;100.00
11444;BME280;5778;47.856;12.154;2023-10-31T00:31:08;94963.13;;;10.94;100.00
11444;BME280;5778;47.856;12.154;2023-10-31T00:33:36;94956.88;;;10.85;100.00
11444;BME280;5778;47.856;12.154;2023-10-31T00:36:04;94960.31;;;10.85;100.00
11444;BME280;5778;47.856;12.154;2023-10-31T00:38:31;94951.09;;;10.78;100.00
11444;BME280;5778;47.856;12.154;2023-10-31T00:40:59;94952.19;;;10.77;100.00
11444;BME280;5778;47.856;12.154;2023-10-31T00:43:26;94952.56;;;10.70;100.00
11444;BME280;5778;47.856;12.154;2023-10-31T00:45:53;94955.81;;;10.62;100.00
11444;BME280;5778;47.856;12.154;2023-10-31T00:48:20;94960.06;;;10.63;100.00
11444;BME280;5778;47.856;12.154;2023-10-31T00:50:47;94960.34;;;10.62;100.00
11444;BME280;5778;47.856;12.154;2023-10-31T00:53:14;94969.63;;;10.64;100.00
11444;BME280;5778;47.856;12.154;2023-10-31T00:55:42;94968.63;;;10.60;100.00
11444;BME280;5778;47.856;12.154;2023-10-31T00:58:11;94962.44;;;10.65;100.00
11444;BME280;5778;47.856;12.154;2023-10-31T01:00:38;94962.94;;;10.67;100.00
11444;BME280;5778;47.856;12.154;2023-10-31T01:03:05;94959.28;;;10.63;100.00
11444;BME280;5778;47.856;12.154;2023-10-31T01:05:32;94959.06;;;10.59;100.00
11444;BME280;5778;47.856;12.154;2023-10-31T01:07:59;94963.59;;;10.59;100.00
11444;BME280;5778;47.856;12.154;2023-10-31T01:10:26;94963.63;;;10.54;100.00
11444;BME280;5778;47.856;12.154;2023-10-31T01:12:53;94959.13;;;10.54;100.00
11444;BME280;5778;47.856;12.154;2023-10-31T01:15:23;94963.84;;;10.57;100.00
11444;BME280;5778;47.856;12.154;2023-10-31T01:17:51;94950.28;;;10.59;100.00
11444;BME280;5778;47.856;12.154;2023-10-31T01:20:18;94938.63;;;10.55;100.00
11444;BME280;5778;47.856;12.154;2023-10-31T01:22:45;94937.63;;;10.51;100.00
11444;BME280;5778;47.856;12.154;2023-10-31T01:25:12;94937.13;;;10.49;100.00
11444;BME280;5778;47.856;12.154;2023-10-31T01:27:39;94930.84;;;10.40;100.00
11444;BME280;5778;47.856;12.154;2023-10-31T01:30:08;94929.25;;;10.39;100.00
11444;BME280;5778;47.856;12.154;2023-10-31T01:32:36;94929.78;;;10.41;100.00
11444;BME280;5778;47.856;12.154;2023-10-31T01:35:04;94935.66;;;10.38;100.00
11444;BME280;5778;47.856;12.154;2023-10-31T01:37:31;94945.22;;;10.39;100.00
11444;BME280;5778;47.856;12.154;2023-10-31T01:39:58;94952.19;;;10.35;100.00
11444;BME280;5778;47.856;12.154;2023-10-31T01:42:25;94961.72;;;10.36;100.00
11444;BME280;5778;47.856;12.154;2023-10-31T01:44:52;94959.63;;;10.33;100.00
11444;BME280;5778;47.856;12.154;2023-10-31T01:47:18;94954.38;;;10.28;100.00
11444;BME280;5778;47.856;12.154;2023-10-31T01:49:47;94950.94;;;10.27;100.00
11444;BME280;5778;47.856;12.154;2023-10-31T01:52:14;94963.41;;;10.27;100.00
11444;BME280;5778;47.856;12.154;2023-10-31T01:54:41;94957.59;;;10.25;100.00
11444;BME280;5778;47.856;12.154;2023-10-31T01:57:08;94957.09;;;10.23;100.00
11444;BME280;5778;47.856;12.154;2023-10-31T01:59:36;94954.72;;;10.21;100.00
11444;BME280;5778;47.856;12.154;2023-10-31T02:02:03;94967.25;;;10.16;100.00
11444;BME280;5778;47.856;12.154;2023-10-31T02:04:31;94959.34;;;10.11;100.00
11444;BME280;5778;47.856;12.154;2023-10-31T02:07:01;94974.50;;;10.10;100.00
11444;BME280;5778;47.856;12.154;2023-10-31T02:09:28;94970.03;;;10.01;100.00
11444;BME280;5778;47.856;12.154;2023-10-31T02:11:55;94969.53;;;9.99;100.00
11444;BME280;5778;47.856;12.154;2023-10-31T02:14:23;94981.22;;;9.98;100.00
11444;BME280;5778;47.856;12.154;2023-10-31T02:16:51;94985.72;;;9.97;100.00
11444;BME280;5778;47.856;12.154;2023-10-31T02:19:20;94984.97;;;9.97;100.00
11444;BME280;5778;47.856;12.154;2023-10-31T02:21:48;94987.31;;;9.98;100.00
11444;BME280;5778;47.856;12.154;2023-10-31T02:24:16;94985.19;;;10.05;100.00
11444;BME280;5778;47.856;12.154;2023-10-31T02:26:43;94981.16;;;10.08;100.00
11444;BME280;5778;47.856;12.154;2023-10-31T02:29:10;94979.88;;;10.05;100.00
11444;BME280;5778;47.856;12.154;2023-10-31T02:31:37;94985.91;;;10.11;100.00
11444;BME280;5778;47.856;12.154;2023-10-31T02:34:04;94996.28;;;10.07;100.00
11444;BME280;5778;47.856;12.154;2023-10-31T02:36:31;94997.38;;;10.01;100.00
11444;BME280;5778;47.856;12.154;2023-10-31T02:39:00;95005.09;;;10.03;100.00
11444;BME280;5778;47.856;12.154;2023-10-31T02:41:28;95016.25;;;10.00;100.00
11444;BME280;5778;47.856;12.154;2023-10-31T02:43:54;95011.16;;;10.03;100.00
11444;BME280;5778;47.856;12.154;2023-10-31T02:46:23;95017.06;;;10.00;100.00
11444;BME280;5778;47.856;12.154;2023-10-31T02:48:50;95015.72;;;10.03;100.00
11444;BME280;5778;47.856;12.154;2023-10-31T02:51:17;95016.81;;;9.97;100.00
11444;BME280;5778;47.856;12.154;2023-10-31T02:53:44;95015.22;;;9.96;100.00
11444;BME280;5778;47.856;12.154;2023-10-31T02:56:12;95005.34;;;10.01;100.00
11444;BME280;5778;47.856;12.154;2023-10-31T02:58:39;95004.84;;;9.99;100.00
11444;BME280;5778;47.856;12.154;2023-10-31T03:01:06;95011.44;;;10.07;100.00
11444;BME280;5778;47.856;12.154;2023-10-31T03:03:33;95013.03;;;10.08;100.00
11444;BME280;5778;47.856;12.154;2023-10-31T03:06:00;95012.00;;;10.04;100.00
11444;BME280;5778;47.856;12.154;2023-10-31T03:08:27;95018.38;;;10.03;100.00
11444;BME280;5778;47.856;12.154;2023-10-31T03:10:54;95026.09;;;9.99;100.00
11444;BME280;5778;47.856;12.154;2023-10-31T03:13:22;95026.38;;;9.98;100.00
11444;BME280;5778;47.856;12.154;2023-10-31T03:15:49;95027.72;;;9.95;100.00
11444;BME280;5778;47.856;12.154;2023-10-31T03:18:16;95027.44;;;9.97;100.00
11444;BME280;5778;47.856;12.154;2023-10-31T03:20:44;95027.94;;;9.99;100.00
11444;BME280;5778;47.856;12.154;2023-10-31T03:23:12;95035.47;;;9.92;100.00
11444;BME280;5778;47.856;12.154;2023-10-31T03:25:39;95035.47;;;9.92;100.00
11444;BME280;5778;47.856;12.154;2023-10-31T03:28:17;95039.47;;;9.89;100.00
11444;BME280;5778;47.856;12.154;2023-10-31T03:30:46;95041.81;;;9.91;100.00
11444;BME280;5778;47.856;12.154;2023-10-31T03:33:14;95043.66;;;9.95;100.00
11444;BME280;5778;47.856;12.154;2023-10-31T03:35:41;95056.13;;;9.95;100.00
11444;BME280;5778;47.856;12.154;2023-10-31T03:38:08;95055.81;;;10.01;100.00
11444;BME280;5778;47.856;12.154;2023-10-31T03:40:35;95059.22;;;10.07;100.00
11444;BME280;5778;47.856;12.154;2023-10-31T03:43:03;95064.53;;;10.07;100.00
11444;BME280;5778;47.856;12.154;2023-10-31T03:45:30;95063.28;;;9.99;100.00
11444;BME280;5778;47.856;12.154;2023-10-31T03:48:00;95070.16;;;10.00;100.00
11444;BME280;5778;47.856;12.154;2023-10-31T03:50:27;95072.00;;;10.05;100.00
11444;BME280;5778;47.856;12.154;2023-10-31T03:52:54;95078.91;;;10.01;100.00
11444;BME280;5778;47.856;12.154;2023-10-31T03:55:22;95097.00;;;9.99;100.00
11444;BME280;5778;47.856;12.154;2023-10-31T03:57:49;95093.75;;;10.02;100.00
11444;BME280;5778;47.856;12.154;2023-10-31T04:00:17;95092.72;;;10.03;100.00
11444;BME280;5778;47.856;12.154;2023-10-31T04:02:44;95098.56;;;10.05;100.00
11444;BME280;5778;47.856;12.154;2023-10-31T04:05:13;95110.78;;;10.01;100.00
11444;BME280;5778;47.856;12.154;2023-10-31T04:07:40;95104.97;;;9.99;100.00
11444;BME280;5778;47.856;12.154;2023-10-31T04:10:07;95098.06;;;9.98;100.00
11444;BME280;5778;47.856;12.154;2023-10-31T04:12:34;95103.34;;;10.03;100.00
11444;BME280;5778;47.856;12.154;2023-10-31T04:15:02;95106.00;;;10.03;100.00
11444;BME280;5778;47.856;12.154;2023-10-31T04:17:29;95098.31;;;10.01;100.00
11444;BME280;5778;47.856;12.154;2023-10-31T04:19:56;95089.25;;;10.02;100.00
11444;BME280;5778;47.856;12.154;2023-10-31T04:22:24;95083.13;;;10.07;100.00
11444;BME280;5778;47.856;12.154;2023-10-31T04:24:51;95094.84;;;10.06;100.00
11444;BME280;5778;47.856;12.154;2023-10-31T04:27:18;95087.13;;;10.04;100.00
11444;BME280;5778;47.856;12.154;2023-10-31T04:29:45;95087.13;;;10.04;100.00
11444;BME280;5778;47.856;12.154;2023-10-31T04:32:12;95093.75;;;10.07;100.00
11444;BME280;5778;47.856;12.154;2023-10-31T04:34:39;95087.13;;;10.04;100.00
11444;BME280;5778;47.856;12.154;2023-10-31T04:37:06;95111.31;;;10.03;100.00
11444;BME280;5778;47.856;12.154;2023-10-31T04:39:35;95110.78;;;10.01;100.00
11444;BME280;5778;47.856;12.154;2023-10-31T04:42:02;95106.56;;;9.95;100.00
11444;BME280;5778;47.856;12.154;2023-10-31T04:44:29;95112.47;;;9.92;100.00
11444;BME280;5778;47.856;12.154;2023-10-31T04:46:56;95102.84;;;9.96;100.00
11444;BME280;5778;47.856;12.154;2023-10-31T04:49:23;95097.53;;;9.96;100.00
11444;BME280;5778;47.856;12.154;2023-10-31T04:51:50;95094.88;;;9.96;100.00
11444;BME280;5778;47.856;12.154;2023-10-31T04:54:17;95089.06;;;9.94;100.00
11444;BME280;5778;47.856;12.154;2023-10-31T04:56:47;95086.44;;;9.89;100.00
11444;BME280;5778;47.856;12.154;2023-10-31T04:59:14;95085.28;;;10.05;100.00
11444;BME280;5778;47.856;12.154;2023-10-31T05:01:48;95118.22;;;10.04;100.00
11444;BME280;5778;47.856;12.154;2023-10-31T05:04:15;95128.25;;;10.12;100.00
11444;BME280;5778;47.856;12.154;2023-10-31T05:06:42;95129.09;;;10.07;100.00
11444;BME280;5778;47.856;12.154;2023-10-31T05:09:10;95141.56;;;10.07;100.00
11444;BME280;5778;47.856;12.154;2023-10-31T05:11:37;95135.75;;;10.05;100.00
11444;BME280;5778;47.856;12.154;2023-10-31T05:14:08;95133.09;;;10.00;100.00
11444;BME280;5778;47.856;12.154;2023-10-31T05:16:44;95117.97;;;10.00;100.00
11444;BME280;5778;47.856;12.154;2023-10-31T05:19:11;95121.13;;;10.02;100.00
11444;BME280;5778;47.856;12.154;2023-10-31T05:21:38;95127.00;;;9.99;100.00
11444;BME280;5778;47.856;12.154;2023-10-31T05:24:07;95134.97;;;9.99;100.00
11444;BME280;5778;47.856;12.154;2023-10-31T05:26:34;95142.13;;;9.99;100.00
11444;BME280;5778;47.856;12.154;2023-10-31T05:29:00;95132.06;;;9.96;100.00
11444;BME280;5778;47.856;12.154;2023-10-31T05:31:29;95131.03;;;9.92;100.00
11444;BME280;5778;47.856;12.154;2023-10-31T05:33:56;95126.50;;;9.92;100.00
11444;BME280;5778;47.856;12.154;2023-10-31T05:36:24;95146.97;;;9.92;100.00
11444;BME280;5778;47.856;12.154;2023-10-31T05:38:51;95151.25;;;9.88;100.00
11444;BME280;5778;47.856;12.154;2023-10-31T05:41:18;95156.59;;;9.78;100.00
11444;BME280;5778;47.856;12.154;2023-10-31T05:43:45;95155.28;;;9.80;100.00
11444;BME280;5778;47.856;12.154;2023-10-31T05:46:12;95141.25;;;9.75;100.00
11444;BME280;5778;47.856;12.154;2023-10-31T05:48:44;95144.41;;;9.77;100.00
11444;BME280;5778;47.856;12.154;2023-10-31T05:51:11;95140.19;;;9.76;100.00
11444;BME280;5778;47.856;12.154;2023-10-31T05:53:41;95153.16;;;9.77;100.00
11444;BME280;5778;47.856;12.154;2023-10-31T05:56:09;95151.06;;;9.74;100.00
11444;BME280;5778;47.856;12.154;2023-10-31T05:58:36;95158.19;;;9.79;100.00
11444;BME280;5778;47.856;12.154;2023-10-31T06:01:04;95151.03;;;9.79;100.00
11444;BME280;5778;47.856;12.154;2023-10-31T06:03:31;95154.53;;;9.75;100.00
11444;BME280;5778;47.856;12.154;2023-10-31T06:05:59;95169.38;;;9.76;100.00
11444;BME280;5778;47.856;12.154;2023-10-31T06:08:26;95172.81;;;9.76;100.00
11444;BME280;5778;47.856;12.154;2023-10-31T06:10:55;95163.25;;;9.75;100.00
11444;BME280;5778;47.856;12.154;2023-10-31T06:13:22;95168.84;;;9.74;100.00
11444;BME280;5778;47.856;12.154;2023-10-31T06:15:51;95176.78;;;9.74;100.00
11444;BME280;5778;47.856;12.154;2023-10-31T06:18:18;95171.50;;;9.74;100.00
11444;BME280;5778;47.856;12.154;2023-10-31T06:20:45;95171.47;;;9.79;100.00
11444;BME280;5778;47.856;12.154;2023-10-31T06:23:14;95166.13;;;9.84;100.00
11444;BME280;5778;47.856;12.154;2023-10-31T06:25:40;95168.81;;;9.79;100.00
11444;BME280;5778;47.856;12.154;2023-10-31T06:28:07;95175.16;;;9.83;100.00
11444;BME280;5778;47.856;12.154;2023-10-31T06:30:34;95183.38;;;9.86;100.00
11444;BME280;5778;47.856;12.154;2023-10-31T06:33:01;95189.50;;;9.82;100.00
11444;BME280;5778;47.856;12.154;2023-10-31T06:35:28;95209.94;;;9.81;100.00
11444;BME280;5778;47.856;12.154;2023-10-31T06:37:56;95220.56;;;9.81;100.00
11444;BME280;5778;47.856;12.154;2023-10-31T06:40:25;95217.94;;;9.76;100.00
11444;BME280;5778;47.856;12.154;2023-10-31T06:42:52;95226.47;;;9.73;100.00
11444;BME280;5778;47.856;12.154;2023-10-31T06:45:19;95224.06;;;9.72;100.00
11444;BME280;5778;47.856;12.154;2023-10-31T06:47:46;95224.81;;;9.77;100.00
11444;BME280;5778;47.856;12.154;2023-10-31T06:50:13;95224.59;;;9.74;100.00
11444;BME280;5778;47.856;12.154;2023-10-31T06:52:40;95217.16;;;9.76;100.00
11444;BME280;5778;47.856;12.154;2023-10-31T06:55:08;95213.44;;;9.77;100.00
11444;BME280;5778;47.856;12.154;2023-10-31T06:57:36;95211.22;;;9.89;100.00
11444;BME280;5778;47.856;12.154;2023-10-31T07:00:05;95211.75;;;9.91;100.00
11444;BME280;5778;47.856;12.154;2023-10-31T07:02:34;95224.25;;;9.90;100.00
11444;BME280;5778;47.856;12.154;2023-10-31T07:05:01;95220.81;;;9.85;100.00
11444;BME280;5778;47.856;12.154;2023-10-31T07:07:30;95229.78;;;9.94;100.00
11444;BME280;5778;47.856;12.154;2023-10-31T07:09:57;95228.75;;;9.90;100.00
11444;BME280;5778;47.856;12.154;2023-10-31T07:12:24;95229.84;;;9.84;100.00
11444;BME280;5778;47.856;12.154;2023-10-31T07:14:53;95237.03;;;9.83;100.00
11444;BME280;5778;47.856;12.154;2023-10-31T07:17:20;95237.28;;;9.87;100.00
11444;BME280;5778;47.856;12.154;2023-10-31T07:19:47;95235.94;;;9.89;100.00
11444;BME280;5778;47.856;12.154;2023-10-31T07:22:13;95245.75;;;9.89;100.00
11444;BME280;5778;47.856;12.154;2023-10-31T07:24:40;95234.88;;;9.90;100.00
11444;BME280;5778;47.856;12.154;2023-10-31T07:27:08;95241.75;;;9.91;100.00
11444;BME280;5778;47.856;12.154;2023-10-31T07:29:36;95239.91;;;9.92;100.00
11444;BME280;5778;47.856;12.154;2023-10-31T07:32:06;95253.94;;;9.97;100.00
11444;BME280;5778;47.856;12.154;2023-10-31T07:34:33;95278.09;;;9.96;100.00
11444;BME280;5778;47.856;12.154;2023-10-31T07:37:00;95274.66;;;9.95;100.00
11444;BME280;5778;47.856;12.154;2023-10-31T07:39:28;95273.88;;;9.90;100.00
11444;BME280;5778;47.856;12.154;2023-10-31T07:41:55;95273.34;;;9.93;100.00
11444;BME280;5778;47.856;12.154;2023-10-31T07:44:22;95269.66;;;9.89;100.00
11444;BME280;5778;47.856;12.154;2023-10-31T07:46:49;95265.91;;;9.90;100.00
11444;BME280;5778;47.856;12.154;2023-10-31T07:49:17;95262.47;;;9.94;100.00
11444;BME280;5778;47.856;12.154;2023-10-31T07:51:44;95264.31;;;9.94;100.00
11444;BME280;5778;47.856;12.154;2023-10-31T07:54:13;95268.31;;;9.91;100.00
11444;BME280;5778;47.856;12.154;2023-10-31T07:56:41;95273.34;;;9.93;100.00
11444;BME280;5778;47.856;12.154;2023-10-31T07:59:08;95280.28;;;9.89;100.00
11444;BME280;5778;47.856;12.154;2023-10-31T08:01:35;95281.59;;;9.86;100.00
11444;BME280;5778;47.856;12.154;2023-10-31T08:04:02;95305.53;;;9.81;100.00
11444;BME280;5778;47.856;12.154;2023-10-31T08:06:31;95310.59;;;9.78;100.00
11444;BME280;5778;47.856;12.154;2023-10-31T08:08:57;95311.38;;;9.78;100.00
11444;BME280;5778;47.856;12.154;2023-10-31T08:11:24;95312.97;;;9.79;100.00
11444;BME280;5778;47.856;12.154;2023-10-31T08:13:52;95309.50;;;9.79;100.00
11444;BME280;5778;47.856;12.154;2023-10-31T08:16:19;95319.34;;;9.78;100.00
11444;BME280;5778;47.856;12.154;2023-10-31T08:18:46;95313.25;;;9.73;100.00
11444;BME280;5778;47.856;12.154;2023-10-31T08:21:13;95310.34;;;9.74;100.00
11444;BME280;5778;47.856;12.154;2023-10-31T08:23:41;95309.28;;;9.70;100.00
11444;BME280;5778;47.856;12.154;2023-10-31T08:26:10;95307.94;;;9.73;100.00
11444;BME280;5778;47.856;12.154;2023-10-31T08:28:38;95314.84;;;9.74;100.00
11444;BME280;5778;47.856;12.154;2023-10-31T08:31:05;95321.72;;;9.80;100.00
11444;BME280;5778;47.856;12.154;2023-10-31T08:33:32;95326.50;;;9.78;100.00
11444;BME280;5778;47.856;12.154;2023-10-31T08:35:58;95340.59;;;9.78;100.00
11444;BME280;5778;47.856;12.154;2023-10-31T08:38:26;95343.50;;;9.82;100.00
11444;BME280;5778;47.856;12.154;2023-10-31T08:40:56;95342.44;;;9.78;100.00
11444;BME280;5778;47.856;12.154;2023-10-31T08:43:23;95345.59;;;9.80;100.00
11444;BME280;5778;47.856;12.154;2023-10-31T08:45:50;95344.81;;;9.84;100.00
11444;BME280;5778;47.856;12.154;2023-10-31T08:48:16;95342.41;;;9.88;100.00
11444;BME280;5778;47.856;12.154;2023-10-31T08:50:43;95336.28;;;9.87;100.00
11444;BME280;5778;47.856;12.154;2023-10-31T08:53:11;95345.84;;;9.88;100.00
11444;BME280;5778;47.856;12.154;2023-10-31T08:55:38;95341.63;;;9.82;100.00
11444;BME280;5778;47.856;12.154;2023-10-31T08:58:07;95340.03;;;9.86;100.00
11444;BME280;5778;47.856;12.154;2023-10-31T09:00:33;95340.56;;;9.83;100.00
11444;BME280;5778;47.856;12.154;2023-10-31T09:03:00;95339.25;;;9.86;100.00
11444;BME280;5778;47.856;12.154;2023-10-31T09:05:29;95335.53;;;9.87;100.00
11444;BME280;5778;47.856;12.154;2023-10-31T09:07:56;95338.44;;;9.85;100.00
11444;BME280;5778;47.856;12.154;2023-10-31T09:10:23;95342.66;;;9.91;100.00
11444;BME280;5778;47.856;12.154;2023-10-31T09:12:50;95341.06;;;9.95;100.00
11444;BME280;5778;47.856;12.154;2023-10-31T09:15:18;95343.97;;;9.94;100.00
11444;BME280;5778;47.856;12.154;2023-10-31T09:17:46;95344.50;;;9.96;100.00
11444;BME280;5778;47.856;12.154;2023-10-31T09:20:13;95336.00;;;9.94;100.00
11444;BME280;5778;47.856;12.154;2023-10-31T09:22:40;95339.72;;;9.98;100.00
11444;BME280;5778;47.856;12.154;2023-10-31T09:25:07;95341.81;;;10.01;100.00
11444;BME280;5778;47.856;12.154;2023-10-31T09:27:37;95342.09;;;10.04;100.00
11444;BME280;5778;47.856;12.154;2023-10-31T09:30:05;95342.38;;;10.03;100.00
11444;BME280;5778;47.856;12.154;2023-10-31T09:32:34;95361.75;;;10.08;100.00
11444;BME280;5778;47.856;12.154;2023-10-31T09:35:01;95368.94;;;10.08;100.00
11444;BME280;5778;47.856;12.154;2023-10-31T09:37:28;95368.13;;;10.07;100.00
11444;BME280;5778;47.856;12.154;2023-10-31T09:39:54;95376.09;;;10.07;100.00
11444;BME280;5778;47.856;12.154;2023-10-31T09:42:21;95370.78;;;10.07;100.00
11444;BME280;5778;47.856;12.154;2023-10-31T09:44:48;95383.81;;;10.09;100.00
11444;BME280;5778;47.856;12.154;2023-10-31T09:47:15;95386.47;;;10.09;100.00
11444;BME280;5778;47.856;12.154;2023-10-31T09:49:44;95395.50;;;10.08;100.00
11444;BME280;5778;47.856;12.154;2023-10-31T09:52:11;95407.72;;;10.09;100.00
11444;BME280;5778;47.856;12.154;2023-10-31T09:54:39;95407.44;;;10.10;100.00
11444;BME280;5778;47.856;12.154;2023-10-31T09:57:08;95417.00;;;10.06;100.00
11444;BME280;5778;47.856;12.154;2023-10-31T09:59:36;95417.53;;;10.08;100.00
11444;BME280;5778;47.856;12.154;2023-10-31T10:02:03;95420.16;;;10.13;100.00
11444;BME280;5778;47.856;12.154;2023-10-31T10:04:31;95424.16;;;10.16;100.00
11444;BME280;5778;47.856;12.154;2023-10-31T10:07:01;95423.06;;;10.17;100.00
11444;BME280;5778;47.856;12.154;2023-10-31T10:09:28;95427.06;;;10.14;100.00
11444;BME280;5778;47.856;12.154;2023-10-31T10:11:56;95423.34;;;10.15;100.00
11444;BME280;5778;47.856;12.154;2023-10-31T10:14:24;95430.00;;;10.13;100.00
11444;BME280;5778;47.856;12.154;2023-10-31T10:16:52;95422.56;;;10.15;100.00
11444;BME280;5778;47.856;12.154;2023-10-31T10:19:20;95418.84;;;10.16;100.00
11444;BME280;5778;47.856;12.154;2023-10-31T10:21:49;95426.28;;;10.19;100.00
11444;BME280;5778;47.856;12.154;2023-10-31T10:24:18;95430.75;;;10.23;100.00
11444;BME280;5778;47.856;12.154;2023-10-31T10:26:46;95427.03;;;10.24;100.00
11444;BME280;5778;47.856;12.154;2023-10-31T10:29:14;95433.66;;;10.27;100.00
11444;BME280;5778;47.856;12.154;2023-10-31T10:31:42;95432.34;;;10.24;100.00
11444;BME280;5778;47.856;12.154;2023-10-31T10:34:10;95432.34;;;10.24;100.00
11444;BME280;5778;47.856;12.154;2023-10-31T10:36:39;95440.31;;;10.24;100.00
11444;BME280;5778;47.856;12.154;2023-10-31T10:39:06;95441.13;;;10.30;100.00
11444;BME280;5778;47.856;12.154;2023-10-31T10:41:37;95440.56;;;10.33;100.00
11444;BME280;5778;47.856;12.154;2023-10-31T10:44:07;95442.69;;;10.36;100.00
11444;BME280;5778;47.856;12.154;2023-10-31T10:46:39;95449.31;;;10.43;100.00
11444;BME280;5778;47.856;12.154;2023-10-31T10:49:07;95449.25;;;10.48;100.00
11444;BME280;5778;47.856;12.154;2023-10-31T10:51:42;95448.47;;;10.48;100.00
11444;BME280;5778;47.856;12.154;2023-10-31T10:54:15;95447.44;;;10.44;100.00
11444;BME280;5778;47.856;12.154;2023-10-31T10:56:53;95446.28;;;10.60;100.00
11444;BME280;5778;47.856;12.154;2023-10-31T10:59:29;95442.53;;;10.66;100.00
11444;BME280;5778;47.856;12.154;2023-10-31T11:01:59;95430.03;;;10.71;100.00
11444;BME280;5778;47.856;12.154;2023-10-31T11:04:28;95430.34;;;10.60;100.00
11444;BME280;5778;47.856;12.154;2023-10-31T11:06:55;95428.75;;;10.59;100.00
11444;BME280;5778;47.856;12.154;2023-10-31T11:09:23;95425.84;;;10.60;100.00
11444;BME280;5778;47.856;12.154;2023-10-31T11:11:52;95412.81;;;10.59;100.00
11444;BME280;5778;47.856;12.154;2023-10-31T11:14:20;95405.91;;;10.58;100.00
11444;BME280;5778;47.856;12.154;2023-10-31T11:16:52;95405.34;;;10.61;100.00
11444;BME280;5778;47.856;12.154;2023-10-31T11:19:20;95404.00;;;10.63;100.00
11444;BME280;5778;47.856;12.154;2023-10-31T11:21:55;95405.34;;;10.61;100.00
11444;BME280;5778;47.856;12.154;2023-10-31T11:24:22;95410.13;;;10.64;100.00
11444;BME280;5778;47.856;12.154;2023-10-31T11:26:58;95414.63;;;10.68;100.00
11444;BME280;5778;47.856;12.154;2023-10-31T11:29:26;95417.00;;;10.70;100.00
11444;BME280;5778;47.856;12.154;2023-10-31T11:31:54;95415.44;;;10.64;100.00
11444;BME280;5778;47.856;12.154;2023-10-31T11:34:22;95406.94;;;10.62;100.00
11444;BME280;5778;47.856;12.154;2023-10-31T11:36:51;95416.00;;;10.56;100.00
11444;BME280;5778;47.856;12.154;2023-10-31T11:39:19;95412.81;;;10.59;100.00
11444;BME280;5778;47.856;12.154;2023-10-31T11:41:55;95402.66;;;10.66;100.00
11444;BME280;5778;47.856;12.154;2023-10-31T11:44:23;95413.50;;;10.74;100.00
11444;BME280;5778;47.856;12.154;2023-10-31T11:49:45;95399.41;;;10.79;100.00
11444;BME280;5778;47.856;12.154;2023-10-31T11:52:14;95393.75;;;10.90;100.00
11444;BME280;5778;47.856;12.154;2023-10-31T11:54:42;95389.25;;;10.86;100.00
11444;BME280;5778;47.856;12.154;2023-10-31T11:57:37;95382.56;;;10.93;100.00
11444;BME280;5778;47.856;12.154;2023-10-31T12:00:06;95382.53;;;10.98;100.00
11444;BME280;5778;47.856;12.154;2023-10-31T12:02:38;95383.84;;;11.01;100.00
11444;BME280;5778;47.856;12.154;2023-10-31T12:05:07;95382.69;;;11.12;100.00
11444;BME280;5778;47.856;12.154;2023-10-31T12:07:42;95382.56;;;10.93;100.00
11444;BME280;5778;47.856;12.154;2023-10-31T12:10:09;95375.84;;;11.06;100.00
11444;BME280;5778;47.856;12.154;2023-10-31T12:12:37;95374.22;;;11.05;100.00
11444;BME280;5778;47.856;12.154;2023-10-31T12:15:05;95362.38;;;11.21;100.00
11444;BME280;5778;47.856;12.154;2023-10-31T12:17:33;95361.91;;;11.14;100.00
11444;BME280;5778;47.856;12.154;2023-10-31T12:20:03;95365.94;;;11.11;100.00
11444;BME280;5778;47.856;12.154;2023-10-31T12:22:30;95370.41;;;11.16;100.00
11444;BME280;5778;47.856;12.154;2023-10-31T12:25:00;95372.03;;;11.17;100.00
11444;BME280;5778;47.856;12.154;2023-10-31T12:27:43;95371.72;;;11.18;100.00
11444;BME280;5778;47.856;12.154;2023-10-31T12:30:11;95370.91;;;11.23;100.00
11444;BME280;5778;47.856;12.154;2023-10-31T12:32:39;95372.06;;;11.12;100.00
11444;BME280;5778;47.856;12.154;2023-10-31T12:35:07;95378.13;;;11.17;100.00
11444;BME280;5778;47.856;12.154;2023-10-31T12:37:35;95384.25;;;11.18;100.00
11444;BME280;5778;47.856;12.154;2023-10-31T12:40:04;95376.31;;;11.13;100.00
11444;BME280;5778;47.856;12.154;2023-10-31T12:42:32;95380.03;;;11.12;100.00
11444;BME280;5778;47.856;12.154;2023-10-31T12:45:00;95378.69;;;11.14;100.00
11444;BME280;5778;47.856;12.154;2023-10-31T12:47:27;95377.06;;;11.13;100.00
11444;BME280;5778;47.856;12.154;2023-10-31T12:50:08;95375.47;;;11.17;100.00
11444;BME280;5778;47.856;12.154;2023-10-31T12:52:49;95381.25;;;11.24;100.00
11444;BME280;5778;47.856;12.154;2023-10-31T12:55:18;95371.91;;;11.27;100.00
11444;BME280;5778;47.856;12.154;2023-10-31T12:57:45;95382.66;;;11.17;100.00
11444;BME280;5778;47.856;12.154;2023-10-31T13:00:15;95385.06;;;11.13;100.00
11444;BME280;5778;47.856;12.154;2023-10-31T13:02:44;95389.34;;;11.14;100.00